Time;durP1;ratioP1;P1;durP2;ratioP2;P2;SDS_P1;SDS_P2;PMS_P1;PMS_P2;Temp;Humidity;BMP_temperature;BMP_pressure;BME280_temperature;BME280_humidity;BME280_pressure;Samples;Min_cycle;Max_cycle;Signal;HPM_P1;HPM_P2
2023/04/25 00:02:19;;;;;;;3.47;2.15;;;16.50;86.10;;;;;;5014100;28;20622;-83
2023/04/25 00:04:44;;;;;;;2.67;1.48;;;16.50;86.10;;;;;;5008736;28;20505;-83
2023/04/25 00:07:11;;;;;;;1.90;1.27;;;16.50;86.00;;;;;;5025770;28;20037;-83
2023/04/25 00:09:37;;;;;;;1.30;1.17;;;16.60;85.80;;;;;;5034524;28;20548;-83
2023/04/25 00:12:02;;;;;;;2.22;1.35;;;16.50;85.70;;;;;;4988254;28;20111;-82
2023/04/25 00:14:29;;;;;;;1.33;1.10;;;16.60;85.70;;;;;;4995041;28;20057;-82
2023/04/25 00:16:55;;;;;;;1.63;0.98;;;16.60;85.60;;;;;;5022768;28;20037;-82
2023/04/25 00:19:21;;;;;;;1.45;1.35;;;16.60;85.80;;;;;;5003119;28;20045;-82
2023/04/25 00:21:47;;;;;;;1.70;1.15;;;16.60;85.70;;;;;;4999758;28;20038;-82
2023/04/25 00:24:13;;;;;;;1.30;0.90;;;16.60;85.60;;;;;;5009482;28;20046;-82
2023/04/25 00:26:39;;;;;;;1.67;1.25;;;16.60;85.60;;;;;;5011284;28;20084;-82
2023/04/25 00:29:04;;;;;;;1.88;1.25;;;16.60;85.50;;;;;;4994556;28;20084;-82
2023/04/25 00:31:30;;;;;;;1.35;1.25;;;16.60;85.40;;;;;;4996437;28;20049;-83
2023/04/25 00:33:56;;;;;;;1.58;1.08;;;16.50;85.30;;;;;;5018532;28;20492;-83
2023/04/25 00:36:22;;;;;;;1.77;1.40;;;16.50;85.40;;;;;;5016099;28;20033;-83
2023/04/25 00:38:47;;;;;;;2.10;1.30;;;16.50;85.40;;;;;;4996434;28;20033;-83
2023/04/25 00:41:13;;;;;;;1.85;1.10;;;16.50;85.40;;;;;;5006663;28;20060;-82
2023/04/25 00:43:40;;;;;;;1.38;0.95;;;16.50;85.50;;;;;;4995328;28;20023;-83
2023/04/25 00:46:05;;;;;;;1.30;1.08;;;16.50;85.40;;;;;;5010291;28;20045;-83
2023/04/25 00:48:31;;;;;;;1.73;1.00;;;16.40;85.50;;;;;;4994261;28;20030;-83
2023/04/25 00:50:58;;;;;;;2.03;1.17;;;16.40;85.50;;;;;;4976405;28;20026;-83
2023/04/25 00:53:25;;;;;;;1.52;1.33;;;16.40;85.60;;;;;;5004634;28;20470;-83
2023/04/25 00:55:52;;;;;;;2.15;1.17;;;16.40;85.80;;;;;;5018414;28;20025;-83
2023/04/25 00:58:18;;;;;;;2.33;1.25;;;16.30;85.80;;;;;;5033278;28;20104;-83
2023/04/25 01:00:46;;;;;;;1.73;1.45;;;16.30;86.00;;;;;;5014979;28;20026;-83
2023/04/25 01:03:21;;;;;;;1.52;1.23;;;16.30;86.10;;;;;;4994905;28;20031;-82
2023/04/25 01:05:48;;;;;;;1.50;1.30;;;16.30;86.10;;;;;;4998021;28;20077;-83
2023/04/25 01:08:14;;;;;;;2.50;1.42;;;16.30;86.00;;;;;;4994454;28;20030;-82
2023/04/25 01:10:40;;;;;;;1.85;1.27;;;16.30;85.90;;;;;;5001311;28;20030;-82
2023/04/25 01:13:07;;;;;;;1.70;1.30;;;16.40;86.00;;;;;;4994211;28;20081;-83
2023/04/25 01:15:35;;;;;;;1.10;1.00;;;16.40;86.00;;;;;;4997894;28;20106;-83
2023/04/25 01:18:01;;;;;;;1.95;1.40;;;16.40;86.00;;;;;;5033371;28;20029;-84
2023/04/25 01:20:28;;;;;;;1.73;1.50;;;16.40;86.10;;;;;;5004556;28;20032;-83
2023/04/25 01:22:55;;;;;;;1.60;1.17;;;16.40;86.20;;;;;;4995155;28;20069;-83
2023/04/25 01:25:23;;;;;;;2.03;1.35;;;16.40;86.20;;;;;;5005706;28;20097;-83
2023/04/25 01:27:49;;;;;;;1.33;1.10;;;16.40;86.10;;;;;;5005064;28;20387;-83
2023/04/25 01:30:15;;;;;;;1.67;1.48;;;16.40;86.10;;;;;;5002621;28;20033;-83
2023/04/25 01:32:42;;;;;;;2.08;1.42;;;16.40;86.10;;;;;;5008825;28;20022;-83
2023/04/25 01:35:10;;;;;;;1.80;1.45;;;16.40;86.10;;;;;;5004761;28;20105;-83
2023/04/25 01:37:38;;;;;;;1.58;1.30;;;16.40;86.10;;;;;;5003292;28;20037;-83
2023/04/25 01:40:05;;;;;;;1.75;1.55;;;16.40;86.00;;;;;;5005162;28;20356;-83
2023/04/25 01:42:32;;;;;;;1.90;1.48;;;16.40;86.20;;;;;;4996857;28;20030;-83
2023/04/25 01:44:58;;;;;;;1.92;1.50;;;16.40;86.30;;;;;;4993561;28;20487;-83
2023/04/25 01:47:23;;;;;;;2.47;2.03;;;16.40;86.50;;;;;;5004139;28;20022;-83
2023/04/25 01:49:49;;;;;;;2.17;1.92;;;16.30;86.40;;;;;;5003806;28;20042;-83
2023/04/25 01:52:15;;;;;;;3.05;1.77;;;16.30;86.50;;;;;;5007107;28;20036;-84
2023/04/25 01:54:43;;;;;;;2.00;1.80;;;16.30;86.40;;;;;;5001971;28;20041;-83
2023/04/25 01:57:10;;;;;;;4.57;2.38;;;16.30;86.50;;;;;;5001779;28;20026;-84
2023/04/25 01:59:36;;;;;;;3.60;2.75;;;16.30;86.60;;;;;;5012883;28;20025;-84
2023/04/25 02:02:03;;;;;;;5.10;3.60;;;16.30;86.60;;;;;;5012657;28;20569;-83
2023/04/25 02:04:30;;;;;;;3.53;3.13;;;16.30;86.50;;;;;;4982362;28;20097;-83
2023/04/25 02:06:55;;;;;;;3.33;2.95;;;16.30;86.50;;;;;;5025298;28;20049;-83
2023/04/25 02:09:21;;;;;;;4.13;3.22;;;16.30;86.40;;;;;;5022058;28;20382;-84
2023/04/25 02:11:47;;;;;;;4.15;3.10;;;16.30;86.30;;;;;;5012551;28;20489;-84
2023/04/25 02:14:13;;;;;;;3.90;2.90;;;16.30;86.50;;;;;;4999535;28;20037;-84
2023/04/25 02:16:39;;;;;;;3.47;2.90;;;16.30;86.40;;;;;;4995621;28;20038;-84
2023/04/25 02:19:05;;;;;;;3.72;2.75;;;16.30;86.30;;;;;;5013268;28;20026;-84
2023/04/25 02:21:31;;;;;;;2.85;2.30;;;16.30;86.30;;;;;;5000173;28;20034;-84
2023/04/25 02:23:57;;;;;;;2.88;2.15;;;16.30;86.10;;;;;;4996671;28;20033;-84
2023/04/25 02:26:24;;;;;;;2.47;2.28;;;16.30;86.00;;;;;;5019718;28;20022;-83
2023/04/25 02:28:50;;;;;;;2.90;2.05;;;16.30;85.80;;;;;;5015958;28;20037;-83
2023/04/25 02:31:16;;;;;;;3.28;2.00;;;16.30;85.70;;;;;;5007098;28;20081;-83
2023/04/25 02:33:43;;;;;;;2.80;1.75;;;16.20;85.70;;;;;;4996844;28;20030;-83
2023/04/25 02:36:08;;;;;;;3.80;1.75;;;16.20;85.60;;;;;;5009025;28;20415;-83
2023/04/25 02:38:34;;;;;;;2.03;1.63;;;16.20;85.60;;;;;;5014452;28;20026;-83
2023/04/25 02:41:00;;;;;;;2.85;2.05;;;16.20;85.60;;;;;;5015403;28;20041;-83
2023/04/25 02:43:26;;;;;;;2.60;1.85;;;16.10;85.60;;;;;;5005194;28;20030;-83
2023/04/25 02:45:51;;;;;;;4.05;1.70;;;16.10;85.70;;;;;;5010165;28;20022;-84
2023/04/25 02:48:17;;;;;;;3.50;1.98;;;16.10;85.80;;;;;;5003718;28;20072;-84
2023/04/25 02:50:43;;;;;;;2.00;1.75;;;16.00;86.00;;;;;;4999231;28;20466;-84
2023/04/25 02:53:09;;;;;;;2.47;1.88;;;16.00;86.00;;;;;;5009333;28;20041;-84
2023/04/25 02:55:34;;;;;;;1.52;1.33;;;16.00;86.10;;;;;;5009725;28;20386;-83
2023/04/25 02:58:00;;;;;;;1.90;1.65;;;15.90;86.00;;;;;;5015889;28;20458;-84
2023/04/25 03:00:26;;;;;;;1.92;1.77;;;15.90;86.10;;;;;;5001168;28;20030;-84
2023/04/25 03:02:51;;;;;;;3.08;2.28;;;15.90;86.10;;;;;;5002432;28;20404;-84
2023/04/25 03:05:17;;;;;;;1.95;1.73;;;15.90;85.70;;;;;;5014122;28;20061;-84
2023/04/25 03:07:44;;;;;;;2.28;1.77;;;15.90;85.70;;;;;;4990874;28;20048;-85
2023/04/25 03:10:10;;;;;;;2.13;1.85;;;15.90;85.70;;;;;;5014930;28;20049;-85
2023/04/25 03:12:36;;;;;;;3.22;1.75;;;15.80;85.90;;;;;;4995834;28;20041;-85
2023/04/25 03:15:03;;;;;;;2.25;2.05;;;15.80;86.00;;;;;;5004096;28;20030;-85
2023/04/25 03:17:29;;;;;;;3.65;1.98;;;15.80;85.90;;;;;;5012111;28;20030;-84
2023/04/25 03:19:55;;;;;;;3.45;2.20;;;15.80;85.90;;;;;;5005136;28;20503;-85
2023/04/25 03:22:21;;;;;;;2.70;1.90;;;15.80;85.80;;;;;;4999131;28;20402;-85
2023/04/25 03:24:47;;;;;;;2.80;2.17;;;15.80;85.70;;;;;;5004293;28;20032;-84
2023/04/25 03:27:13;;;;;;;2.53;2.10;;;15.80;85.70;;;;;;5014262;28;20452;-84
2023/04/25 03:29:40;;;;;;;2.65;2.10;;;15.80;85.70;;;;;;5006275;28;20026;-83
2023/04/25 03:32:06;;;;;;;2.40;2.20;;;15.80;85.80;;;;;;5010540;28;20053;-83
2023/04/25 03:34:31;;;;;;;3.55;2.88;;;15.70;85.90;;;;;;5014479;28;20073;-83
2023/04/25 03:36:57;;;;;;;4.80;2.70;;;15.70;86.00;;;;;;5003838;28;20064;-83
2023/04/25 03:39:23;;;;;;;3.15;2.42;;;15.70;86.20;;;;;;5014574;28;20429;-82
2023/04/25 03:41:48;;;;;;;3.10;2.47;;;15.80;86.60;;;;;;5001773;28;20026;-83
2023/04/25 03:44:14;;;;;;;3.67;2.80;;;15.80;86.90;;;;;;4995667;28;20509;-85
2023/04/25 03:46:40;;;;;;;3.75;2.60;;;15.80;87.00;;;;;;4977777;28;20037;-85
2023/04/25 03:49:06;;;;;;;4.32;2.75;;;15.80;87.20;;;;;;4998307;28;20018;-86
2023/04/25 03:51:32;;;;;;;3.47;2.70;;;15.80;87.40;;;;;;4997004;28;20036;-86
2023/04/25 03:53:58;;;;;;;4.00;2.90;;;15.80;87.70;;;;;;4984081;28;20039;-86
2023/04/25 03:56:23;;;;;;;4.30;2.88;;;15.80;88.20;;;;;;4994963;28;20037;-86
2023/04/25 03:58:49;;;;;;;4.15;2.88;;;15.80;88.70;;;;;;4980841;28;20034;-86
2023/04/25 04:01:15;;;;;;;3.13;2.67;;;15.80;89.60;;;;;;4978762;28;20033;-86
2023/04/25 04:03:41;;;;;;;3.42;2.50;;;15.80;90.00;;;;;;5015852;28;20025;-86
2023/04/25 04:06:07;;;;;;;3.33;2.42;;;15.80;90.20;;;;;;4985588;28;20758;-86
2023/04/25 04:08:33;;;;;;;3.67;2.75;;;15.80;90.20;;;;;;4994476;28;20022;-86
2023/04/25 04:10:59;;;;;;;5.28;2.70;;;15.80;90.20;;;;;;4985960;28;20033;-85
2023/04/25 04:13:29;;;;;;;3.30;2.33;;;15.80;90.20;;;;;;5004863;28;20427;-85
2023/04/25 04:15:55;;;;;;;3.35;2.72;;;15.80;90.30;;;;;;5002896;28;20037;-81
2023/04/25 04:18:21;;;;;;;2.92;2.38;;;15.80;90.50;;;;;;4996097;28;20105;-80
2023/04/25 04:20:48;;;;;;;3.85;2.17;;;15.70;90.60;;;;;;4998556;28;20038;-81
2023/04/25 04:23:14;;;;;;;2.15;1.95;;;15.70;90.60;;;;;;5001787;28;20746;-81
2023/04/25 04:25:49;;;;;;;2.65;1.75;;;15.70;90.70;;;;;;4999659;28;20094;-81
2023/04/25 04:28:15;;;;;;;3.72;2.60;;;15.70;91.00;;;;;;4996426;28;20027;-84
2023/04/25 04:30:42;;;;;;;3.38;2.63;;;15.70;91.10;;;;;;4998014;28;20084;-85
2023/04/25 04:33:08;;;;;;;4.07;2.83;;;15.70;91.20;;;;;;5004319;28;20026;-84
2023/04/25 04:35:34;;;;;;;3.97;3.17;;;15.70;91.40;;;;;;5003060;28;20065;-84
2023/04/25 04:38:00;;;;;;;4.93;3.00;;;15.70;91.60;;;;;;5014519;28;20115;-84
2023/04/25 04:40:26;;;;;;;4.15;3.15;;;15.70;91.90;;;;;;5012673;28;20034;-84
2023/04/25 04:42:53;;;;;;;3.78;2.83;;;15.70;92.10;;;;;;4994461;28;20018;-85
2023/04/25 04:45:19;;;;;;;4.40;3.38;;;15.70;92.30;;;;;;4987169;28;20045;-85
2023/04/25 04:47:45;;;;;;;4.75;3.20;;;15.60;92.20;;;;;;5013835;28;20029;-85
2023/04/25 04:50:11;;;;;;;3.42;2.95;;;15.70;92.40;;;;;;4997585;28;20493;-84
2023/04/25 04:52:40;;;;;;;3.72;2.83;;;15.70;92.40;;;;;;5031913;28;20038;-84
2023/04/25 04:55:07;;;;;;;5.00;2.85;;;15.70;92.50;;;;;;5022602;28;20069;-84
2023/04/25 04:57:33;;;;;;;5.32;4.03;;;15.70;92.50;;;;;;5008584;28;20045;-84
2023/04/25 04:59:59;;;;;;;4.72;3.78;;;15.70;92.60;;;;;;4976580;28;20026;-84
2023/04/25 05:02:25;;;;;;;4.18;3.58;;;15.70;92.50;;;;;;5011701;28;20030;-85
2023/04/25 05:04:52;;;;;;;5.47;3.80;;;15.80;92.70;;;;;;5021725;28;20018;-84
2023/04/25 05:07:18;;;;;;;5.50;3.70;;;15.70;92.70;;;;;;4977746;28;20041;-85
2023/04/25 05:09:44;;;;;;;3.95;3.15;;;15.70;92.60;;;;;;4976853;28;20026;-84
2023/04/25 05:12:10;;;;;;;5.03;3.70;;;15.70;92.70;;;;;;4994046;28;20026;-84
2023/04/25 05:14:35;;;;;;;4.85;3.58;;;15.70;92.80;;;;;;4993551;28;20113;-84
2023/04/25 05:17:04;;;;;;;7.40;4.63;;;15.60;92.70;;;;;;4997871;28;20035;-84
2023/04/25 05:19:30;;;;;;;5.70;3.33;;;15.60;92.80;;;;;;4993963;28;20057;-84
2023/04/25 05:21:56;;;;;;;3.67;3.05;;;15.60;92.70;;;;;;4993319;28;20073;-84
2023/04/25 05:24:21;;;;;;;6.45;3.53;;;15.60;92.80;;;;;;4998941;28;20060;-84
2023/04/25 05:26:47;;;;;;;5.75;3.90;;;15.50;92.80;;;;;;5013309;28;20013;-84
2023/04/25 05:29:13;;;;;;;5.68;4.50;;;15.50;92.80;;;;;;4993528;28;20031;-85
2023/04/25 05:31:38;;;;;;;4.45;3.38;;;15.40;92.90;;;;;;5014976;28;20079;-84
2023/04/25 05:34:04;;;;;;;4.30;3.55;;;15.30;92.90;;;;;;5025931;28;20026;-83
2023/04/25 05:36:32;;;;;;;4.95;4.10;;;15.30;93.00;;;;;;5011155;28;20112;-84
2023/04/25 05:38:58;;;;;;;3.83;3.42;;;15.30;92.90;;;;;;4977389;28;20037;-83
2023/04/25 05:41:24;;;;;;;6.10;3.63;;;15.20;92.80;;;;;;5001892;28;20105;-85
2023/04/25 05:43:50;;;;;;;4.05;3.45;;;15.20;92.90;;;;;;5013155;28;20041;-84
2023/04/25 05:46:16;;;;;;;4.25;3.38;;;15.30;93.00;;;;;;4993485;28;20061;-85
2023/04/25 05:48:43;;;;;;;4.00;3.38;;;15.20;93.00;;;;;;5009881;28;20018;-84
2023/04/25 05:51:09;;;;;;;5.28;3.67;;;15.20;93.00;;;;;;4993845;28;20027;-85
2023/04/25 05:53:35;;;;;;;4.63;2.97;;;15.20;93.00;;;;;;4988530;28;20498;-86
2023/04/25 05:56:01;;;;;;;5.93;3.45;;;15.20;93.00;;;;;;4984440;28;20123;-84
2023/04/25 05:58:27;;;;;;;5.93;3.50;;;15.20;93.10;;;;;;4992389;28;20033;-85
2023/04/25 06:00:52;;;;;;;3.85;3.10;;;15.20;93.20;;;;;;4997211;28;20359;-85
2023/04/25 06:03:18;;;;;;;5.57;3.08;;;15.30;93.10;;;;;;4997427;28;20034;-85
2023/04/25 06:05:44;;;;;;;4.38;3.38;;;15.30;93.20;;;;;;4997003;28;20022;-86
2023/04/25 06:08:10;;;;;;;4.57;3.60;;;15.30;93.30;;;;;;4979467;28;20073;-86
2023/04/25 06:10:37;;;;;;;5.10;3.30;;;15.40;93.30;;;;;;5001971;28;20038;-86
2023/04/25 06:13:04;;;;;;;3.80;3.15;;;15.40;93.20;;;;;;4997250;28;20034;-86
2023/04/25 06:15:29;;;;;;;4.05;3.10;;;15.40;93.20;;;;;;5006281;28;20026;-86
2023/04/25 06:17:55;;;;;;;3.65;2.60;;;15.40;93.20;;;;;;4999683;28;20088;-80
2023/04/25 06:20:24;;;;;;;3.47;2.65;;;15.40;93.20;;;;;;4995584;28;20018;-80
2023/04/25 06:22:51;;;;;;;5.55;3.13;;;15.40;93.20;;;;;;4986653;28;20047;-81
2023/04/25 06:25:17;;;;;;;5.68;3.00;;;15.40;93.30;;;;;;4974688;28;20463;-80
2023/04/25 06:27:43;;;;;;;2.30;2.08;;;15.30;93.30;;;;;;4961241;28;20050;-87
2023/04/25 06:30:09;;;;;;;3.92;2.65;;;15.30;93.30;;;;;;4982197;28;20489;-85
2023/04/25 06:32:35;;;;;;;2.95;2.53;;;15.30;93.40;;;;;;4997710;28;20050;-85
2023/04/25 06:35:01;;;;;;;3.58;2.60;;;15.30;93.30;;;;;;4984805;28;20058;-86
2023/04/25 06:37:26;;;;;;;4.68;2.88;;;15.40;93.40;;;;;;4997540;28;20112;-84
2023/04/25 06:39:52;;;;;;;4.22;2.88;;;15.30;93.50;;;;;;4994621;28;20065;-87
2023/04/25 06:42:18;;;;;;;5.10;2.63;;;15.40;93.50;;;;;;4981686;28;20034;-86
2023/04/25 06:44:43;;;;;;;2.72;2.20;;;15.40;93.50;;;;;;4996633;28;20026;-85
2023/04/25 06:47:09;;;;;;;3.47;2.05;;;15.40;93.40;;;;;;4975175;28;20076;-86
2023/04/25 06:49:35;;;;;;;3.95;2.28;;;15.40;93.40;;;;;;4987242;28;20129;-86
2023/04/25 06:52:01;;;;;;;1.65;1.38;;;15.40;93.40;;;;;;4992506;28;20036;-83
2023/04/25 06:54:35;;;;;;;2.00;1.25;;;15.50;93.20;;;;;;4995181;28;20039;-86
2023/04/25 06:57:01;;;;;;;3.10;1.95;;;15.50;93.00;;;;;;5001165;28;20029;-86
2023/04/25 06:59:27;;;;;;;2.42;1.60;;;15.50;92.90;;;;;;5012681;28;20152;-87
2023/04/25 07:01:52;;;;;;;4.10;1.92;;;15.40;92.80;;;;;;4997239;28;20434;-87
2023/04/25 07:04:18;;;;;;;3.35;1.50;;;15.40;92.80;;;;;;4996117;28;20034;-87
2023/04/25 07:06:44;;;;;;;3.28;1.75;;;15.40;92.80;;;;;;4960349;28;20113;-87
2023/04/25 07:09:11;;;;;;;5.22;1.83;;;15.40;92.90;;;;;;4978126;28;20022;-87
2023/04/25 07:11:37;;;;;;;4.65;2.03;;;15.40;93.00;;;;;;4978297;28;20057;-86
2023/04/25 07:14:03;;;;;;;4.38;1.70;;;15.40;93.10;;;;;;4997060;28;20371;-86
2023/04/25 07:16:29;;;;;;;3.28;1.95;;;15.40;93.20;;;;;;4993514;28;20049;-87
2023/04/25 07:18:55;;;;;;;3.75;2.55;;;15.40;93.30;;;;;;4984223;28;20034;-85
2023/04/25 07:21:21;;;;;;;4.30;2.05;;;15.30;93.10;;;;;;4996698;28;20035;-86
2023/04/25 07:23:46;;;;;;;4.28;2.25;;;15.20;93.20;;;;;;5013084;28;20093;-86
2023/04/25 07:26:12;;;;;;;3.75;2.47;;;15.20;93.30;;;;;;5021556;28;20022;-86
2023/04/25 07:28:38;;;;;;;1.85;1.73;;;15.10;93.40;;;;;;5015364;28;20029;-80
2023/04/25 07:31:05;;;;;;;2.85;2.13;;;15.10;93.40;;;;;;5015268;28;20034;-79
2023/04/25 07:33:30;;;;;;;3.92;2.15;;;15.00;93.40;;;;;;5024402;28;20033;-80
2023/04/25 07:35:56;;;;;;;3.40;2.40;;;14.90;93.70;;;;;;5005116;28;20064;-80
2023/04/25 07:38:22;;;;;;;5.13;3.17;;;14.90;93.60;;;;;;5004111;28;20462;-80
2023/04/25 07:40:49;;;;;;;3.47;2.70;;;14.90;93.80;;;;;;5014605;28;20041;-80
2023/04/25 07:43:16;;;;;;;4.20;3.33;;;14.80;93.70;;;;;;4978337;28;20030;-79
2023/04/25 07:45:46;;;;;;;5.85;2.90;;;14.70;93.80;;;;;;4994868;28;20041;-80
2023/04/25 07:48:18;;;;;;;2.72;2.38;;;14.70;93.90;;;;;;5002720;28;20485;-80
2023/04/25 07:50:44;;;;;;;4.50;2.75;;;14.70;93.80;;;;;;4985437;28;20089;-82
2023/04/25 07:53:10;;;;;;;4.70;3.28;;;14.70;94.00;;;;;;5013142;28;20038;-81
2023/04/25 07:55:36;;;;;;;4.25;3.15;;;14.70;93.90;;;;;;4987803;28;20030;-78
2023/04/25 07:58:02;;;;;;;4.05;3.20;;;14.80;93.90;;;;;;4980486;28;20121;-88
2023/04/25 08:00:29;;;;;;;3.60;3.30;;;14.80;93.90;;;;;;4991513;28;20122;-79
2023/04/25 08:02:54;;;;;;;4.40;3.50;;;14.90;93.80;;;;;;5005906;28;20496;-80
2023/04/25 08:05:21;;;;;;;4.45;3.53;;;14.90;93.90;;;;;;5011853;28;20109;-87
2023/04/25 08:07:46;;;;;;;3.97;3.42;;;14.90;93.80;;;;;;4999579;28;20077;-80
2023/04/25 08:10:12;;;;;;;3.85;3.45;;;14.90;93.80;;;;;;4986085;28;20038;-80
2023/04/25 08:12:38;;;;;;;5.95;3.70;;;14.90;93.80;;;;;;4994502;28;20482;-80
2023/04/25 08:15:05;;;;;;;4.43;3.22;;;14.90;93.70;;;;;;4995183;28;20030;-80
2023/04/25 08:17:30;;;;;;;4.55;3.28;;;14.90;93.70;;;;;;5019827;28;20032;-79
2023/04/25 08:19:56;;;;;;;3.13;2.65;;;14.90;93.60;;;;;;5012685;28;20456;-81
2023/04/25 08:22:22;;;;;;;3.72;2.55;;;14.90;93.50;;;;;;5005560;28;20039;-79
2023/04/25 08:24:48;;;;;;;4.55;2.55;;;14.80;93.60;;;;;;4991147;28;20080;-78
2023/04/25 08:27:14;;;;;;;3.42;2.65;;;14.90;93.50;;;;;;4990569;28;20026;-77
2023/04/25 08:29:39;;;;;;;3.20;2.22;;;14.80;93.40;;;;;;4986862;28;20067;-78
2023/04/25 08:32:05;;;;;;;3.47;2.78;;;14.80;93.40;;;;;;4983745;28;20541;-77
2023/04/25 08:34:31;;;;;;;3.42;2.63;;;14.80;93.40;;;;;;4987282;28;20085;-78
2023/04/25 08:36:56;;;;;;;3.85;2.50;;;14.80;93.40;;;;;;4967564;28;20184;-78
2023/04/25 08:39:22;;;;;;;5.25;3.15;;;14.80;93.50;;;;;;4989908;28;20034;-79
2023/04/25 08:41:48;;;;;;;3.92;3.30;;;14.80;93.50;;;;;;4984052;28;20392;-78
2023/04/25 08:44:16;;;;;;;4.82;3.42;;;14.70;93.60;;;;;;4989005;28;20463;-78
2023/04/25 08:46:42;;;;;;;4.00;3.13;;;14.70;93.60;;;;;;4974284;28;20502;-78
2023/04/25 08:49:11;;;;;;;4.53;3.55;;;14.60;93.70;;;;;;4990533;28;20023;-79
2023/04/25 08:51:46;;;;;;;4.05;2.83;;;14.60;93.80;;;;;;4980671;28;20030;-79
2023/04/25 08:54:13;;;;;;;3.50;3.17;;;14.60;93.90;;;;;;4994336;28;20537;-79
2023/04/25 08:56:43;;;;;;;4.18;3.45;;;14.60;93.90;;;;;;4985849;28;20034;-79
2023/04/25 08:59:09;;;;;;;4.63;3.58;;;14.60;94.00;;;;;;4996347;28;20128;-78
2023/04/25 09:01:35;;;;;;;4.07;3.35;;;14.60;94.10;;;;;;4984492;28;20467;-78
2023/04/25 09:04:02;;;;;;;3.47;3.17;;;14.60;94.10;;;;;;5001534;28;20014;-78
2023/04/25 09:06:29;;;;;;;4.30;3.22;;;14.60;94.00;;;;;;4980097;28;20041;-79
2023/04/25 09:08:54;;;;;;;5.18;3.50;;;14.60;94.00;;;;;;4989004;28;20101;-78
2023/04/25 09:11:20;;;;;;;6.03;3.65;;;14.60;94.00;;;;;;4976287;28;20408;-78
2023/04/25 09:13:46;;;;;;;4.07;3.60;;;14.60;94.00;;;;;;4997047;28;20053;-78
2023/04/25 09:16:11;;;;;;;6.85;3.75;;;14.60;94.10;;;;;;4996766;28;20105;-78
2023/04/25 09:18:37;;;;;;;4.18;3.47;;;14.60;94.20;;;;;;4988688;28;20036;-80
2023/04/25 09:21:12;;;;;;;4.68;3.78;;;14.60;94.20;;;;;;4998326;28;20562;-81
2023/04/25 09:23:51;;;;;;;9.32;3.92;;;14.50;94.20;;;;;;5003103;28;20117;-80
2023/04/25 09:26:19;;;;;;;5.50;4.00;;;14.50;94.30;;;;;;4983309;28;20459;-86
2023/04/25 09:28:45;;;;;;;5.05;3.70;;;14.50;94.30;;;;;;5007510;28;20026;-87
2023/04/25 09:31:11;;;;;;;5.85;4.07;;;14.50;94.40;;;;;;5003465;28;20061;-86
2023/04/25 09:33:37;;;;;;;5.00;3.78;;;14.50;94.50;;;;;;5010557;28;20021;-88
2023/04/25 09:36:13;;;;;;;4.30;3.47;;;14.60;94.60;;;;;;5000136;28;20018;-87
2023/04/25 09:38:45;;;;;;;4.10;3.13;;;14.60;94.60;;;;;;4996151;28;20030;-86
2023/04/25 09:41:11;;;;;;;4.75;2.63;;;14.60;94.40;;;;;;4993051;28;20038;-86
2023/04/25 09:43:38;;;;;;;2.88;2.28;;;14.60;94.30;;;;;;5009148;28;20022;-85
2023/04/25 09:46:09;;;;;;;2.40;1.75;;;14.60;94.20;;;;;;4997395;28;20034;-86
2023/04/25 09:48:35;;;;;;;3.38;1.73;;;14.60;94.00;;;;;;4956251;28;20050;-89
2023/04/25 09:51:13;;;;;;;1.95;1.48;;;14.60;93.90;;;;;;4986749;28;20466;-87
2023/04/25 09:53:46;;;;;;;2.20;1.33;;;14.60;93.80;;;;;;4998972;28;20033;-86
2023/04/25 09:56:12;;;;;;;2.90;0.98;;;14.60;93.80;;;;;;4977530;28;20475;-87
2023/04/25 09:58:39;;;;;;;1.23;1.13;;;14.60;93.60;;;;;;4975682;28;20034;-88
2023/04/25 10:01:08;;;;;;;1.58;0.70;;;14.60;93.60;;;;;;4987768;28;20034;-88
2023/04/25 10:03:37;;;;;;;1.48;0.93;;;14.70;93.60;;;;;;4979035;28;20488;-87
2023/04/25 10:06:07;;;;;;;3.28;0.82;;;14.70;93.30;;;;;;4987334;28;20038;-87
2023/04/25 10:08:35;;;;;;;;;;;14.70;93.20;;;;;;5003018;28;20027;-86
2023/04/25 10:11:02;;;;;;;1.75;0.60;;;14.80;93.30;;;;;;4990960;28;19917;-85
2023/04/25 10:13:30;;;;;;;4.43;0.80;;;14.80;93.10;;;;;;4987629;28;20027;-85
2023/04/25 10:16:01;;;;;;;3.78;0.63;;;14.80;93.10;;;;;;4987796;28;20451;-79
2023/04/25 10:18:28;;;;;;;2.05;0.50;;;14.80;92.80;;;;;;4966958;28;20038;-79
2023/04/25 10:20:56;;;;;;;2.58;0.50;;;15.00;92.70;;;;;;4974252;28;20034;-87
2023/04/25 10:23:23;;;;;;;1.25;0.38;;;15.10;92.50;;;;;;4993037;28;20058;-85
2023/04/25 10:25:53;;;;;;;2.17;0.63;;;15.20;92.70;;;;;;4987244;28;20018;-77
2023/04/25 10:28:20;;;;;;;4.10;0.65;;;15.30;91.60;;;;;;4986162;28;20042;-78
2023/04/25 10:31:07;;;;;;;4.35;0.70;;;15.50;92.30;;;;;;5005095;28;20030;-78
2023/04/25 10:33:38;;;;;;;0.35;0.30;;;15.60;91.10;;;;;;4998882;28;20030;-79
2023/04/25 10:36:10;;;;;;;2.05;0.50;;;15.70;91.20;;;;;;4994255;28;20153;-79
2023/04/25 10:38:37;;;;;;;1.80;0.52;;;15.80;90.80;;;;;;4991367;28;20508;-79
2023/04/25 10:41:05;;;;;;;1.25;0.55;;;15.80;90.50;;;;;;5010660;28;20027;-80
2023/04/25 10:43:30;;;;;;;1.85;0.40;;;15.90;90.30;;;;;;5013336;28;20064;-79
2023/04/25 10:45:56;;;;;;;2.08;0.68;;;15.90;90.30;;;;;;5009312;28;20470;-79
2023/04/25 10:48:49;;;;;;;4.28;0.65;;;16.00;90.20;;;;;;5006153;28;20061;-85
2023/04/25 10:51:18;;;;;;;1.48;0.50;;;16.10;89.30;;;;;;5010239;28;20140;-84
2023/04/25 10:53:45;;;;;;;2.33;0.63;;;16.20;88.60;;;;;;5006340;28;20049;-85
2023/04/25 10:56:19;;;;;;;0.73;0.38;;;16.30;88.80;;;;;;5007685;28;20071;-85
2023/04/25 10:58:45;;;;;;;1.85;0.40;;;16.40;88.40;;;;;;5013597;28;20038;-84
2023/04/25 11:01:24;;;;;;;2.08;0.45;;;16.50;88.20;;;;;;5010603;28;20030;-84
2023/04/25 11:03:57;;;;;;;3.35;0.60;;;16.50;87.80;;;;;;5009980;28;20066;-84
2023/04/25 11:06:46;;;;;;;2.10;0.43;;;16.70;87.80;;;;;;5010272;28;20029;-84
2023/04/25 11:09:13;;;;;;;1.48;0.30;;;16.80;86.50;;;;;;4998899;28;20425;-85
2023/04/25 11:11:39;;;;;;;0.50;0.32;;;17.10;87.60;;;;;;5005616;28;20037;-84
2023/04/25 11:14:04;;;;;;;1.67;0.45;;;17.40;86.40;;;;;;5013886;28;20029;-84
2023/04/25 11:16:32;;;;;;;0.82;0.30;;;17.60;84.00;;;;;;4996251;28;20029;-78
2023/04/25 11:18:58;;;;;;;3.08;0.30;;;17.90;84.60;;;;;;5014969;28;20034;-78
2023/04/25 11:21:28;;;;;;;1.73;0.30;;;18.20;84.10;;;;;;5014982;28;20034;-79
2023/04/25 11:23:56;;;;;;;;;;;18.50;84.00;;;;;;5011513;28;20077;-79
2023/04/25 11:26:22;;;;;;;0.70;0.40;;;18.80;80.80;;;;;;5000640;28;19909;-78
2023/04/25 11:28:49;;;;;;;2.58;0.73;;;19.10;80.70;;;;;;4999969;28;20383;-78
2023/04/25 11:31:15;;;;;;;1.02;0.50;;;19.30;80.60;;;;;;4982057;28;20035;-78
2023/04/25 11:33:42;;;;;;;1.40;0.60;;;19.60;78.40;;;;;;5000819;28;20088;-77
2023/04/25 11:36:08;;;;;;;1.63;0.38;;;19.80;76.10;;;;;;4996672;28;20034;-77
2023/04/25 11:38:34;;;;;;;0.60;0.28;;;20.10;76.80;;;;;;5005427;28;20048;-86
2023/04/25 11:41:00;;;;;;;0.68;0.40;;;20.30;77.30;;;;;;5013946;28;20121;-76
2023/04/25 11:43:26;;;;;;;1.30;0.50;;;20.60;74.90;;;;;;5010473;28;20122;-77
2023/04/25 11:45:52;;;;;;;1.45;0.70;;;20.60;74.20;;;;;;4997959;28;20030;-79
2023/04/25 11:48:20;;;;;;;3.08;0.75;;;20.70;72.60;;;;;;5023167;28;20061;-79
2023/04/25 11:50:46;;;;;;;0.32;0.30;;;20.80;73.00;;;;;;5007036;28;20028;-78
2023/04/25 11:53:12;;;;;;;1.45;0.60;;;20.90;72.60;;;;;;5011089;28;20030;-79
2023/04/25 11:55:39;;;;;;;1.30;0.50;;;21.10;72.60;;;;;;5016629;28;20036;-77
2023/04/25 11:58:05;;;;;;;4.45;0.70;;;21.00;72.40;;;;;;5016855;28;20061;-78
2023/04/25 12:00:32;;;;;;;9.43;0.40;;;20.90;69.50;;;;;;4998060;28;20058;-78
2023/04/25 12:02:58;;;;;;;1.15;0.43;;;20.50;69.30;;;;;;5017146;28;20036;-78
2023/04/25 12:05:26;;;;;;;1.17;0.45;;;20.50;70.90;;;;;;5016685;28;20040;-80
2023/04/25 12:07:53;;;;;;;2.78;0.35;;;20.70;71.70;;;;;;5019134;28;20069;-80
2023/04/25 12:10:20;;;;;;;1.52;0.50;;;21.10;69.70;;;;;;5002217;28;20069;-81
2023/04/25 12:12:47;;;;;;;1.27;0.40;;;21.50;70.10;;;;;;4988323;28;20082;-81
2023/04/25 12:15:20;;;;;;;0.75;0.38;;;21.90;69.70;;;;;;5003692;28;20041;-80
2023/04/25 12:17:46;;;;;;;1.50;0.30;;;22.30;69.10;;;;;;5003256;28;20025;-80
2023/04/25 12:20:15;;;;;;;1.15;0.40;;;22.70;66.90;;;;;;5009984;28;20061;-80
2023/04/25 12:22:46;;;;;;;1.08;0.22;;;22.80;65.60;;;;;;5007969;28;20042;-80
2023/04/25 12:25:13;;;;;;;0.90;0.30;;;22.90;66.00;;;;;;5005517;28;20048;-80
2023/04/25 12:27:43;;;;;;;0.77;0.30;;;22.90;65.50;;;;;;5015130;28;20049;-79
2023/04/25 12:30:10;;;;;;;2.55;0.38;;;23.00;64.50;;;;;;5012331;28;20066;-79
2023/04/25 12:32:37;;;;;;;1.48;0.40;;;23.10;64.40;;;;;;4998351;28;20475;-80
2023/04/25 12:35:04;;;;;;;1.80;0.47;;;23.20;63.80;;;;;;4996842;28;20036;-78
2023/04/25 12:37:30;;;;;;;0.75;0.50;;;23.30;62.50;;;;;;5002023;28;20096;-78
2023/04/25 12:39:56;;;;;;;0.50;0.30;;;23.40;61.70;;;;;;5005701;28;20591;-79
2023/04/25 12:42:22;;;;;;;1.80;0.50;;;23.40;61.90;;;;;;5009231;28;20038;-78
2023/04/25 12:44:47;;;;;;;1.17;0.40;;;23.20;61.90;;;;;;5004009;28;20032;-78
2023/04/25 12:47:14;;;;;;;2.00;0.50;;;23.00;61.90;;;;;;5010831;28;20030;-78